Time;durP1;ratioP1;P1;durP2;ratioP2;P2;SDS_P1;SDS_P2;PMS_P1;PMS_P2;Temp;Humidity;BMP_temperature;BMP_pressure;BME280_temperature;BME280_humidity;BME280_pressure;Samples;Min_cycle;Max_cycle;Signal;HPM_P1;HPM_P2
2023/09/25 00:00:32;;;;;;;1.98;1.20;;;;;;;15.39;76.20;101399.25;5148325;27;20030;-61
2023/09/25 00:02:59;;;;;;;2.65;1.17;;;;;;;15.41;76.81;101394.91;5148227;27;20027;-61
2023/09/25 00:05:25;;;;;;;1.42;0.73;;;;;;;15.41;76.12;101394.91;5148133;27;20094;-62
2023/09/25 00:07:51;;;;;;;1.48;0.85;;;;;;;15.46;76.23;101405.28;5147870;27;20023;-62
2023/09/25 00:10:17;;;;;;;2.85;0.77;;;;;;;15.33;76.34;101379.28;5148131;27;20102;-61
2023/09/25 00:12:42;;;;;;;1.05;0.75;;;;;;;15.48;76.06;101395.66;5148001;27;20030;-61
2023/09/25 00:15:08;;;;;;;1.00;0.90;;;;;;;15.48;76.38;101395.66;5147909;27;20031;-61
2023/09/25 00:17:34;;;;;;;2.90;1.05;;;;;;;15.52;76.20;101397.38;5147958;27;20050;-61
2023/09/25 00:20:00;;;;;;;0.80;0.80;;;;;;;15.52;76.53;101407.84;5147613;27;20079;-60
2023/09/25 00:22:25;;;;;;;1.33;0.80;;;;;;;15.56;76.30;101396.44;5147666;27;20023;-60
2023/09/25 00:24:51;;;;;;;1.10;0.82;;;;;;;15.52;76.43;101389.50;5147645;27;20490;-61
2023/09/25 00:27:16;;;;;;;2.13;1.17;;;;;;;15.51;76.70;101384.28;5147595;27;20383;-61
2023/09/25 00:29:42;;;;;;;1.23;1.13;;;;;;;15.54;76.51;101390.38;5147565;27;20018;-60
2023/09/25 00:32:07;;;;;;;1.08;0.98;;;;;;;15.56;76.30;101398.19;5147690;27;20023;-61
2023/09/25 00:34:32;;;;;;;0.73;0.70;;;;;;;15.57;76.61;101394.69;5147065;27;20095;-62
2023/09/25 00:36:59;;;;;;;1.55;0.98;;;;;;;15.57;76.60;101397.31;5147480;27;20023;-60
2023/09/25 00:39:24;;;;;;;5.38;1.52;;;;;;;15.53;76.51;101386.00;5147478;27;20023;-61
2023/09/25 00:41:50;;;;;;;4.45;1.40;;;;;;;15.56;76.42;101388.56;5147127;27;20027;-60
2023/09/25 00:44:16;;;;;;;1.83;1.13;;;;;;;15.57;76.32;101379.84;5147520;27;20027;-61
2023/09/25 00:46:42;;;;;;;1.60;1.23;;;;;;;15.57;76.40;101378.97;5147323;27;20087;-61
2023/09/25 00:49:07;;;;;;;2.33;1.00;;;;;;;15.52;76.32;101375.56;5147631;27;20031;-61
2023/09/25 00:51:33;;;;;;;2.22;1.40;;;;;;;15.52;75.79;101371.19;5147009;27;20019;-60
2023/09/25 00:53:59;;;;;;;3.08;1.38;;;;;;;15.48;75.38;101374.72;5147224;27;20544;-62
2023/09/25 00:56:24;;;;;;;1.75;1.55;;;;;;;15.47;74.96;101367.75;5147027;27;20249;-61
2023/09/25 00:58:50;;;;;;;1.92;1.40;;;;;;;15.47;74.80;101362.53;5147074;27;20051;-61
2023/09/25 01:01:15;;;;;;;2.00;1.17;;;;;;;15.53;74.69;101361.59;5146978;27;20034;-61
2023/09/25 01:03:41;;;;;;;2.05;1.27;;;;;;;15.55;74.90;101359.81;5147041;27;20072;-61
2023/09/25 01:06:07;;;;;;;6.00;1.55;;;;;;;15.56;74.86;101365.03;5146948;27;20050;-61
2023/09/25 01:08:33;;;;;;;2.05;0.90;;;;;;;15.55;74.93;101363.28;5146700;27;20080;-62
2023/09/25 01:10:59;;;;;;;2.95;1.00;;;;;;;15.51;74.77;101364.22;5146849;27;20424;-61
2023/09/25 01:13:24;;;;;;;1.08;0.90;;;;;;;15.48;75.00;101359.00;5146900;27;20023;-61
2023/09/25 01:15:50;;;;;;;1.88;1.30;;;;;;;15.44;74.94;101363.44;5146749;27;20029;-61
2023/09/25 01:18:15;;;;;;;1.95;1.00;;;;;;;15.42;74.75;101364.34;5146903;27;20084;-61
2023/09/25 01:20:40;;;;;;;1.20;0.80;;;;;;;15.33;74.65;101365.34;5146656;27;20015;-62
2023/09/25 01:23:07;;;;;;;1.48;1.10;;;;;;;15.32;74.68;101369.69;5146670;27;20027;-63
2023/09/25 01:25:32;;;;;;;5.15;0.75;;;;;;;15.27;74.72;101363.66;5146576;27;20123;-62
2023/09/25 01:27:57;;;;;;;1.67;1.10;;;;;;;15.21;74.53;101361.13;5146604;27;20026;-61
2023/09/25 01:30:24;;;;;;;2.95;0.98;;;;;;;15.12;74.70;101364.72;5146670;27;20080;-61
2023/09/25 01:32:51;;;;;;;1.23;1.13;;;;;;;15.11;74.98;101360.38;5146543;27;20020;-61
2023/09/25 01:35:23;;;;;;;0.85;0.77;;;;;;;15.05;74.88;101360.47;5146684;27;20019;-61
2023/09/25 01:37:50;;;;;;;8.23;1.30;;;;;;;15.00;74.93;101352.66;5146378;27;20019;-61
2023/09/25 01:40:17;;;;;;;1.17;0.90;;;;;;;14.96;75.08;101348.34;5146193;27;20506;-60
2023/09/25 01:42:44;;;;;;;1.17;1.02;;;;;;;14.94;74.88;101350.97;5146668;27;20035;-62
2023/09/25 01:45:10;;;;;;;6.85;1.35;;;;;;;14.89;74.78;101342.31;5145587;27;20030;-61
2023/09/25 01:47:37;;;;;;;2.47;1.27;;;;;;;14.85;74.97;101343.25;5146471;27;20355;-61
2023/09/25 01:50:03;;;;;;;1.55;0.90;;;;;;;14.85;75.10;101349.34;5146307;27;20022;-62
2023/09/25 01:52:29;;;;;;;1.45;1.00;;;;;;;14.80;75.00;101343.28;5146051;27;20030;-61
2023/09/25 01:54:54;;;;;;;1.52;1.20;;;;;;;14.73;74.92;101346.81;5146312;27;20023;-61
2023/09/25 01:57:21;;;;;;;1.63;1.38;;;;;;;14.70;75.26;101344.22;5146311;27;20027;-61
2023/09/25 01:59:46;;;;;;;1.45;1.13;;;;;;;14.70;75.19;101333.78;5146251;27;20022;-61
2023/09/25 02:02:12;;;;;;;4.38;1.38;;;;;;;14.64;75.01;101345.16;5146074;27;20019;-61
2023/09/25 02:04:37;;;;;;;1.77;1.20;;;;;;;14.58;75.53;101342.63;5146123;27;20471;-62
2023/09/25 02:07:03;;;;;;;2.08;1.08;;;;;;;14.56;75.43;101334.81;5145734;27;20035;-60
2023/09/25 02:09:28;;;;;;;2.13;1.30;;;;;;;14.55;75.16;101340.03;5146181;28;20015;-61
2023/09/25 02:11:54;;;;;;;2.65;1.15;;;;;;;14.49;75.23;101336.59;5146189;28;20031;-61
2023/09/25 02:14:19;;;;;;;1.42;1.08;;;;;;;14.45;75.76;101328.81;5145903;28;20031;-61
2023/09/25 02:16:44;;;;;;;1.73;1.20;;;;;;;14.43;75.59;101331.44;5145965;28;20027;-61
2023/09/25 02:19:10;;;;;;;1.35;0.68;;;;;;;14.44;75.94;101327.09;5146035;28;20023;-62
2023/09/25 02:21:36;;;;;;;1.73;1.05;;;;;;;14.36;75.94;101333.25;5127361;28;20023;-61
2023/09/25 02:24:01;;;;;;;1.25;0.95;;;;;;;14.32;75.95;101326.31;5145816;28;20089;-61
2023/09/25 02:26:27;;;;;;;5.50;1.45;;;;;;;14.24;76.30;101317.69;5146315;28;20023;-60
2023/09/25 02:28:52;;;;;;;2.17;1.15;;;;;;;14.26;76.31;101329.00;5146070;28;20027;-61
2023/09/25 02:31:18;;;;;;;6.80;1.45;;;;;;;14.27;76.52;101324.63;5145856;28;20102;-61
2023/09/25 02:33:44;;;;;;;1.17;0.90;;;;;;;14.20;76.87;101318.59;5146011;28;20508;-62
2023/09/25 02:36:09;;;;;;;1.77;0.80;;;;;;;14.25;77.07;101327.25;5145790;28;20496;-61
2023/09/25 02:38:35;;;;;;;0.93;0.88;;;;;;;14.21;77.14;101339.50;5127150;28;20027;-60
2023/09/25 02:41:01;;;;;;;3.03;1.35;;;;;;;14.19;77.04;101327.31;5145738;28;20023;-60
2023/09/25 02:43:27;;;;;;;1.30;1.15;;;;;;;14.22;77.50;101337.72;5145481;28;20027;-62
2023/09/25 02:45:53;;;;;;;1.38;1.00;;;;;;;14.23;77.63;101345.53;5145777;28;20019;-61
2023/09/25 02:48:18;;;;;;;0.98;0.70;;;;;;;14.21;77.49;101339.50;5145576;28;20027;-61
2023/09/25 02:50:43;;;;;;;1.90;0.93;;;;;;;14.23;77.84;101329.03;5145556;28;20089;-61
2023/09/25 02:53:09;;;;;;;2.13;1.08;;;;;;;14.23;77.70;101329.03;5145790;28;20028;-61
2023/09/25 02:55:34;;;;;;;2.35;0.85;;;;;;;14.18;77.68;101331.69;5145529;27;20035;-62
2023/09/25 02:58:00;;;;;;;1.90;1.23;;;;;;;14.19;77.93;101337.75;5149225;27;20079;-61
2023/09/25 03:00:26;;;;;;;4.32;1.10;;;;;;;14.16;78.22;101333.44;5149327;27;20027;-61
2023/09/25 03:02:52;;;;;;;3.78;1.58;;;;;;;14.18;78.02;101341.25;5149600;27;20065;-61
2023/09/25 03:05:19;;;;;;;4.20;1.00;;;;;;;14.11;77.71;101315.19;5149516;27;20036;-60
2023/09/25 03:07:45;;;;;;;5.25;1.35;;;;;;;14.19;78.08;101336.00;5149218;27;20052;-61
2023/09/25 03:10:10;;;;;;;4.63;1.10;;;;;;;14.21;78.00;101336.00;5149296;27;20039;-61
2023/09/25 03:12:36;;;;;;;3.13;1.10;;;;;;;14.15;77.99;101329.09;5149107;27;20019;-61
2023/09/25 03:15:04;;;;;;;0.68;0.57;;;;;;;14.23;78.18;101318.59;5149320;27;20023;-62
2023/09/25 03:17:30;;;;;;;2.15;1.02;;;;;;;14.18;78.65;101326.47;5149303;27;20091;-62
2023/09/25 03:19:55;;;;;;;1.88;0.70;;;;;;;14.20;78.98;101323.81;5149054;27;20030;-61
2023/09/25 03:22:21;;;;;;;3.53;1.50;;;;;;;14.18;79.05;101317.75;5148844;27;20053;-60
2023/09/25 03:24:48;;;;;;;4.38;1.23;;;;;;;14.18;78.86;101329.06;5148969;27;20074;-61
2023/09/25 03:27:13;;;;;;;2.33;1.05;;;;;;;14.17;79.34;101326.47;5148958;27;20027;-61
2023/09/25 03:29:39;;;;;;;4.45;1.38;;;;;;;14.20;79.07;101334.28;5148806;27;20437;-60
2023/09/25 03:32:04;;;;;;;1.02;0.93;;;;;;;14.21;79.35;101322.94;5148817;27;20015;-61
2023/09/25 03:34:30;;;;;;;0.90;0.80;;;;;;;14.19;79.70;101333.41;5148915;27;20034;-61
2023/09/25 03:36:55;;;;;;;1.42;0.85;;;;;;;14.23;79.78;101326.41;5148869;27;20023;-60
2023/09/25 03:39:21;;;;;;;1.48;0.90;;;;;;;14.27;79.41;101325.50;5148800;27;20030;-61
2023/09/25 03:41:46;;;;;;;1.60;1.10;;;;;;;14.28;79.34;101337.66;5148761;27;20106;-61
2023/09/25 03:44:12;;;;;;;3.88;1.17;;;;;;;14.27;79.68;101341.16;5130387;27;20509;-62
2023/09/25 03:46:37;;;;;;;1.98;1.25;;;;;;;14.31;79.85;101337.66;5148796;27;20023;-62
2023/09/25 03:49:05;;;;;;;2.67;1.23;;;;;;;14.27;80.44;101319.41;5148835;27;20046;-61
2023/09/25 03:51:35;;;;;;;3.25;1.27;;;;;;;14.38;79.94;101334.09;5148668;27;20026;-62
2023/09/25 03:54:00;;;;;;;1.58;0.80;;;;;;;14.18;80.38;101309.91;5148624;27;20096;-62
2023/09/25 03:56:27;;;;;;;1.13;0.98;;;;;;;14.37;80.10;101331.50;5148510;27;20027;-63
2023/09/25 03:58:52;;;;;;;1.10;0.93;;;;;;;14.30;80.46;101330.69;5148382;27;20026;-61
2023/09/25 04:01:18;;;;;;;2.47;2.05;;;;;;;14.34;80.48;101335.03;5148215;27;20031;-62
2023/09/25 04:03:43;;;;;;;1.73;1.13;;;;;;;14.27;80.68;101341.16;5148197;27;20341;-61
2023/09/25 04:06:09;;;;;;;2.10;1.35;;;;;;;14.31;80.21;101329.81;5148323;27;20023;-61
2023/09/25 04:08:35;;;;;;;1.13;1.00;;;;;;;14.33;80.40;101335.88;5147201;27;20023;-61
2023/09/25 04:11:00;;;;;;;3.08;1.33;;;;;;;14.34;80.48;101331.53;5147980;27;20033;-61
2023/09/25 04:13:26;;;;;;;2.65;1.77;;;;;;;14.41;80.39;101324.50;5148139;27;20060;-61
2023/09/25 04:15:52;;;;;;;1.50;1.13;;;;;;;14.38;80.14;101325.38;5148169;27;20030;-61
2023/09/25 04:18:21;;;;;;;3.42;1.38;;;;;;;14.36;80.39;101320.19;5129422;27;20015;-61
2023/09/25 04:20:47;;;;;;;7.18;1.27;;;;;;;14.38;80.29;101328.00;5147591;27;20015;-61
2023/09/25 04:23:13;;;;;;;1.52;1.25;;;;;;;14.34;80.07;101316.75;5147771;27;20026;-61
2023/09/25 04:25:38;;;;;;;1.67;1.13;;;;;;;14.43;80.32;101326.22;5147629;27;20125;-62
2023/09/25 04:28:05;;;;;;;2.38;1.40;;;;;;;14.48;80.08;101323.56;5148009;27;20027;-61
2023/09/25 04:30:31;;;;;;;2.58;1.58;;;;;;;14.42;80.46;101323.63;5147541;27;20078;-61
2023/09/25 04:32:57;;;;;;;1.90;1.27;;;;;;;14.40;80.40;101317.53;5147787;27;20026;-61
2023/09/25 04:35:23;;;;;;;7.13;1.67;;;;;;;14.38;80.52;101323.66;5147676;27;20026;-61
2023/09/25 04:37:49;;;;;;;5.32;1.77;;;;;;;14.28;80.51;101308.09;5147275;27;20048;-61
2023/09/25 04:40:22;;;;;;;1.60;1.20;;;;;;;14.35;80.89;101328.03;5147709;27;20023;-61
2023/09/25 04:42:49;;;;;;;2.22;1.15;;;;;;;14.36;80.91;101325.41;5147334;27;20019;-62
2023/09/25 04:45:18;;;;;;;1.67;1.23;;;;;;;14.37;80.81;101316.72;5128955;27;20026;-62
2023/09/25 04:47:43;;;;;;;7.25;1.88;;;;;;;14.40;80.94;101315.81;5147386;27;20029;-63
2023/09/25 04:50:10;;;;;;;4.20;1.38;;;;;;;14.40;81.16;101321.03;5147457;27;20038;-62
2023/09/25 04:52:37;;;;;;;1.25;1.08;;;;;;;14.37;81.13;101310.59;5147393;27;20023;-61
2023/09/25 04:55:13;;;;;;;0.80;0.80;;;;;;;14.41;80.89;101308.84;5147309;27;20027;-62
2023/09/25 04:57:42;;;;;;;3.33;1.42;;;;;;;14.45;80.99;101314.00;5147234;27;20019;-62
2023/09/25 05:00:15;;;;;;;3.28;1.55;;;;;;;14.47;81.11;101312.22;5147051;27;20015;-61
2023/09/25 05:02:46;;;;;;;0.50;0.50;;;;;;;14.55;80.88;101317.41;5147139;27;20086;-62
2023/09/25 05:05:12;;;;;;;3.63;1.25;;;;;;;14.50;80.59;101320.03;5147053;27;20023;-66
2023/09/25 05:07:40;;;;;;;4.72;1.15;;;;;;;14.49;80.96;101326.16;5146914;27;20110;-62
2023/09/25 05:10:06;;;;;;;3.22;1.73;;;;;;;14.49;80.90;101320.94;5147445;27;20096;-62
2023/09/25 05:12:31;;;;;;;3.78;1.25;;;;;;;14.52;80.80;101317.41;5147088;27;20047;-61
2023/09/25 05:14:57;;;;;;;9.90;1.40;;;;;;;14.52;80.90;101313.94;5147276;27;20015;-62
2023/09/25 05:17:22;;;;;;;6.88;1.25;;;;;;;14.56;80.64;101307.78;5146886;27;20038;-61
2023/09/25 05:19:47;;;;;;;4.68;1.10;;;;;;;14.53;80.82;101302.59;5146649;27;20031;-61
2023/09/25 05:22:13;;;;;;;1.00;0.82;;;;;;;14.56;80.32;101290.38;5146428;27;20494;-61
2023/09/25 05:24:38;;;;;;;0.70;0.70;;;;;;;14.58;79.89;101280.78;5146677;27;20039;-61
2023/09/25 05:27:04;;;;;;;1.13;0.95;;;;;;;14.62;80.25;101278.97;5146509;27;20038;-61
2023/09/25 05:29:29;;;;;;;13.73;1.45;;;;;;;14.70;79.85;101271.06;5146848;27;20015;-61
2023/09/25 05:31:54;;;;;;;1.70;1.35;;;;;;;14.63;79.80;101254.59;5146724;27;20019;-61
2023/09/25 05:34:20;;;;;;;1.38;1.10;;;;;;;14.71;79.67;101259.75;5146730;27;20043;-61
2023/09/25 05:36:45;;;;;;;2.10;1.50;;;;;;;14.81;79.32;101269.22;5146570;27;20019;-61
2023/09/25 05:39:10;;;;;;;2.53;1.35;;;;;;;14.75;79.70;101269.25;5146304;27;20023;-61
2023/09/25 05:41:36;;;;;;;2.83;1.08;;;;;;;14.81;79.36;101268.38;5146519;27;20061;-61
2023/09/25 05:44:01;;;;;;;1.63;1.02;;;;;;;14.85;79.18;101275.28;5146368;27;20026;-60
2023/09/25 05:46:27;;;;;;;12.55;1.80;;;;;;;14.91;79.27;101272.59;5146502;27;20023;-62
2023/09/25 05:48:53;;;;;;;1.20;1.10;;;;;;;14.93;78.96;101265.59;5146514;27;20030;-61
2023/09/25 05:51:19;;;;;;;1.95;1.35;;;;;;;15.01;78.50;101268.09;5146467;27;20050;-60
2023/09/25 05:53:44;;;;;;;1.20;1.00;;;;;;;15.00;78.83;101271.59;5146147;27;20029;-60
2023/09/25 05:56:09;;;;;;;2.55;1.10;;;;;;;15.17;77.69;101274.00;5146298;27;20019;-61
2023/09/25 05:58:35;;;;;;;1.15;0.88;;;;;;;15.16;77.71;101263.56;5146153;27;20082;-61
2023/09/25 06:01:01;;;;;;;1.42;1.08;;;;;;;15.16;77.77;101266.16;5145859;27;20087;-60
2023/09/25 06:03:26;;;;;;;4.13;1.00;;;;;;;15.26;77.68;101264.25;5146186;27;20020;-61
2023/09/25 06:05:52;;;;;;;4.80;1.80;;;;;;;15.24;77.43;101265.16;5146221;27;20075;-60
2023/09/25 06:08:18;;;;;;;2.45;1.30;;;;;;;15.33;77.55;101268.53;5146064;27;20383;-61
2023/09/25 06:10:44;;;;;;;0.98;0.68;;;;;;;15.40;77.60;101270.16;5146123;28;20022;-61
2023/09/25 06:13:09;;;;;;;5.72;1.08;;;;;;;15.49;77.43;101283.09;5146206;28;20022;-61
2023/09/25 06:15:37;;;;;;;2.25;1.15;;;;;;;15.56;77.19;101265.56;5146278;28;20019;-60
2023/09/25 06:18:07;;;;;;;1.05;0.90;;;;;;;15.64;77.37;101272.44;5146063;28;20042;-61
2023/09/25 06:20:36;;;;;;;1.38;1.10;;;;;;;15.69;76.83;101268.84;5146246;28;20056;-61
2023/09/25 06:23:01;;;;;;;2.40;1.23;;;;;;;15.78;76.37;101278.34;5146136;28;20103;-61
2023/09/25 06:25:29;;;;;;;4.22;1.50;;;;;;;15.75;75.98;101270.50;5146001;28;20075;-60
2023/09/25 06:27:55;;;;;;;1.80;0.98;;;;;;;15.73;76.13;101274.91;5146005;28;20023;-60
2023/09/25 06:30:21;;;;;;;0.80;0.80;;;;;;;15.74;75.60;101271.41;5146199;27;20015;-60
2023/09/25 06:32:47;;;;;;;6.00;1.08;;;;;;;15.84;74.42;101267.75;5149720;27;20038;-60
2023/09/25 06:35:13;;;;;;;2.75;1.52;;;;;;;15.71;74.89;101274.06;5150143;27;20032;-60
2023/09/25 06:37:38;;;;;;;2.60;0.90;;;;;;;15.69;74.76;101266.25;5150067;27;20023;-61
2023/09/25 06:40:09;;;;;;;0.80;0.80;;;;;;;15.73;74.31;101265.28;5149939;27;20030;-61
2023/09/25 06:42:35;;;;;;;4.93;1.60;;;;;;;15.67;74.74;101268.00;5149675;27;20510;-60
2023/09/25 06:45:03;;;;;;;2.08;1.23;;;;;;;15.68;74.86;101274.13;5149497;27;20050;-61
2023/09/25 06:47:28;;;;;;;1.83;1.20;;;;;;;15.68;75.03;101274.13;5150064;27;20019;-61
2023/09/25 06:49:53;;;;;;;1.92;1.33;;;;;;;15.69;74.45;101273.22;5149761;27;20047;-61
2023/09/25 06:52:19;;;;;;;1.33;1.13;;;;;;;15.72;74.67;101279.28;5149821;27;20027;-60
2023/09/25 06:54:44;;;;;;;4.57;1.40;;;;;;;15.74;74.15;101276.63;5149826;27;20027;-61
2023/09/25 06:57:10;;;;;;;2.35;1.45;;;;;;;15.72;74.79;101271.44;5149796;27;20030;-61
2023/09/25 06:59:35;;;;;;;5.68;1.60;;;;;;;15.73;74.75;101270.53;5131100;27;20467;-61
2023/09/25 07:02:01;;;;;;;3.80;1.13;;;;;;;15.73;74.51;101272.31;5149569;27;20025;-61
2023/09/25 07:04:27;;;;;;;1.23;1.05;;;;;;;15.68;74.27;101279.34;5149762;27;20493;-61
2023/09/25 07:06:52;;;;;;;0.70;0.60;;;;;;;15.79;74.20;101274.81;5149695;27;20049;-60
2023/09/25 07:09:17;;;;;;;8.48;1.20;;;;;;;15.77;73.99;101275.75;5149472;27;20030;-61
2023/09/25 07:11:44;;;;;;;4.30;1.20;;;;;;;15.80;74.22;101281.78;5149459;27;20104;-61
2023/09/25 07:14:09;;;;;;;2.78;1.10;;;;;;;15.79;74.26;101269.59;5149436;27;20079;-60
2023/09/25 07:16:35;;;;;;;2.67;1.33;;;;;;;15.79;74.28;101269.59;5149385;27;20045;-60
2023/09/25 07:19:00;;;;;;;6.30;1.27;;;;;;;15.84;74.11;101261.66;5149388;27;20041;-60
2023/09/25 07:21:26;;;;;;;10.32;1.17;;;;;;;15.89;73.91;101264.19;5149184;27;20044;-62
2023/09/25 07:23:51;;;;;;;2.17;1.52;;;;;;;15.92;73.57;101254.53;5149212;27;20475;-61
2023/09/25 07:26:17;;;;;;;3.80;1.25;;;;;;;15.88;73.89;101250.22;5149417;27;20027;-61
2023/09/25 07:28:45;;;;;;;7.28;2.00;;;;;;;15.90;73.61;101251.06;5149111;27;20023;-61
2023/09/25 07:31:11;;;;;;;0.88;0.85;;;;;;;15.87;73.63;101232.78;5149181;27;20027;-61
2023/09/25 07:33:36;;;;;;;1.83;1.00;;;;;;;15.92;72.98;101243.19;5149064;27;20015;-61
2023/09/25 07:36:03;;;;;;;4.68;1.55;;;;;;;15.82;73.49;101251.19;5149086;27;20030;-61
2023/09/25 07:38:29;;;;;;;1.42;0.80;;;;;;;15.84;73.53;101251.16;5148826;27;20082;-61
2023/09/25 07:40:54;;;;;;;2.13;1.10;;;;;;;15.90;73.53;101240.59;5149023;27;20036;-61
2023/09/25 07:43:20;;;;;;;2.38;1.13;;;;;;;15.93;73.50;101260.63;5147593;27;20023;-61
2023/09/25 07:45:48;;;;;;;1.92;1.00;;;;;;;16.00;72.90;101261.41;5148923;27;20059;-60
2023/09/25 07:48:14;;;;;;;9.88;1.50;;;;;;;15.97;73.25;101259.69;5149091;27;20128;-61
2023/09/25 07:50:40;;;;;;;1.90;0.80;;;;;;;16.00;72.83;101270.13;5148778;27;20024;-61
2023/09/25 07:53:07;;;;;;;3.17;1.75;;;;;;;16.06;72.76;101263.91;5148329;27;20026;-61
2023/09/25 07:55:32;;;;;;;3.75;1.33;;;;;;;16.01;72.69;101277.09;5148710;27;20190;-60
2023/09/25 07:57:59;;;;;;;4.78;1.50;;;;;;;16.02;72.93;101265.75;5148547;27;20015;-61
2023/09/25 08:00:24;;;;;;;0.88;0.75;;;;;;;16.13;72.49;101262.94;5148425;27;20068;-61
2023/09/25 08:02:51;;;;;;;1.30;1.00;;;;;;;16.15;72.54;101268.16;5148501;27;20019;-61
2023/09/25 08:05:21;;;;;;;5.05;1.17;;;;;;;16.18;72.38;101260.22;5148540;27;20023;-61
2023/09/25 08:07:48;;;;;;;9.18;1.40;;;;;;;16.21;72.17;101268.03;5148226;27;20019;-61
2023/09/25 08:10:14;;;;;;;1.02;0.93;;;;;;;16.28;72.21;101267.00;5129630;27;20040;-61
2023/09/25 08:12:39;;;;;;;1.75;1.40;;;;;;;16.37;71.71;101265.13;5148270;27;20019;-60
2023/09/25 08:15:06;;;;;;;7.78;1.05;;;;;;;16.32;71.67;101262.59;5148369;27;20034;-60
2023/09/25 08:17:31;;;;;;;2.50;1.65;;;;;;;16.25;71.61;101276.69;5148490;27;20023;-60
2023/09/25 08:19:58;;;;;;;3.58;1.40;;;;;;;16.32;72.13;101280.94;5148313;27;20019;-60
2023/09/25 08:22:24;;;;;;;2.78;1.30;;;;;;;16.41;71.97;101290.34;5147904;27;20131;-60
2023/09/25 08:24:49;;;;;;;2.72;1.27;;;;;;;16.48;71.66;101290.22;5147959;27;20491;-61
2023/09/25 08:27:15;;;;;;;6.47;0.95;;;;;;;16.66;71.54;101287.28;5148269;27;20030;-60
2023/09/25 08:29:40;;;;;;;2.10;1.15;;;;;;;16.78;71.30;101279.16;5148230;27;20042;-60
2023/09/25 08:32:07;;;;;;;6.30;1.17;;;;;;;16.91;71.22;101279.78;5147942;27;20019;-60
2023/09/25 08:34:33;;;;;;;1.95;1.00;;;;;;;17.07;69.89;101271.56;5148037;27;20022;-62
2023/09/25 08:36:59;;;;;;;2.08;0.90;;;;;;;17.19;69.51;101278.31;5147953;27;20027;-61
2023/09/25 08:39:24;;;;;;;1.42;1.13;;;;;;;17.35;69.22;101257.84;5147702;27;20038;-60
2023/09/25 08:41:50;;;;;;;1.42;1.05;;;;;;;17.57;68.20;101252.97;5147602;27;20091;-60
2023/09/25 08:44:18;;;;;;;4.00;1.25;;;;;;;17.73;67.37;101242.09;5147677;27;20019;-61
2023/09/25 08:46:44;;;;;;;2.90;1.40;;;;;;;17.63;67.85;101253.72;5147737;27;20072;-61
2023/09/25 08:49:10;;;;;;;4.45;1.17;;;;;;;17.70;67.09;101257.91;5147761;27;20434;-61
2023/09/25 08:51:38;;;;;;;6.50;1.60;;;;;;;17.72;67.05;101250.84;5147460;27;20045;-61
2023/09/25 08:54:04;;;;;;;2.83;1.02;;;;;;;17.93;67.11;101238.06;5128483;27;20023;-61
2023/09/25 08:56:33;;;;;;;1.38;1.02;;;;;;;18.19;66.58;101247.06;5147398;27;20029;-61
2023/09/25 08:59:00;;;;;;;3.25;1.20;;;;;;;18.51;64.85;101239.19;5147504;27;20023;-61
2023/09/25 09:01:28;;;;;;;1.30;1.00;;;;;;;18.43;64.54;101227.16;5147439;27;20071;-61
2023/09/25 09:03:53;;;;;;;2.97;1.17;;;;;;;18.56;64.95;101240.78;5147398;27;20027;-60
2023/09/25 09:06:18;;;;;;;1.50;0.85;;;;;;;18.62;64.21;101238.88;5147534;27;20026;-61
2023/09/25 09:08:46;;;;;;;7.15;1.58;;;;;;;18.58;63.37;101248.63;5147348;27;20578;-60
2023/09/25 09:11:13;;;;;;;1.25;0.80;;;;;;;18.52;62.77;101233.91;5147188;27;20034;-61
2023/09/25 09:13:46;;;;;;;0.70;0.70;;;;;;;18.42;63.38;101230.66;5147326;27;20023;-61
2023/09/25 09:16:13;;;;;;;2.42;1.13;;;;;;;18.43;62.42;101234.16;5147144;27;20050;-61
2023/09/25 09:18:38;;;;;;;1.58;1.05;;;;;;;18.57;62.96;101247.78;5147023;27;20026;-61
2023/09/25 09:21:03;;;;;;;1.63;0.90;;;;;;;18.73;61.56;101247.31;5146775;27;20026;-60
2023/09/25 09:23:42;;;;;;;2.17;1.13;;;;;;;18.73;60.52;101241.19;5146849;27;20103;-60
2023/09/25 09:26:13;;;;;;;1.33;1.00;;;;;;;18.60;61.49;101240.69;5147041;27;20318;-60
2023/09/25 09:28:41;;;;;;;1.75;1.30;;;;;;;18.69;61.77;101237.81;5147114;27;20047;-60
2023/09/25 09:31:07;;;;;;;1.25;0.90;;;;;;;18.93;61.18;101241.47;5146775;27;20019;-60
2023/09/25 09:33:37;;;;;;;3.17;1.20;;;;;;;19.60;60.17;101240.31;5146903;27;20489;-60
2023/09/25 09:36:03;;;;;;;3.28;1.70;;;;;;;20.21;58.08;101249.69;5128241;27;20029;-62
2023/09/25 09:38:29;;;;;;;2.05;1.17;;;;;;;21.00;56.31;101250.34;5146507;27;20109;-60
2023/09/25 09:40:55;;;;;;;2.83;1.27;;;;;;;21.37;55.40;101251.53;5146568;27;20027;-60
2023/09/25 09:43:22;;;;;;;3.63;0.98;;;;;;;21.41;53.95;101252.25;5146599;27;20023;-60
2023/09/25 09:45:50;;;;;;;0.80;0.70;;;;;;;21.32;54.57;101247.34;5146613;27;20034;-60
2023/09/25 09:48:18;;;;;;;3.50;1.05;;;;;;;22.39;53.55;101257.88;5146554;27;20023;-60
2023/09/25 09:50:48;;;;;;;4.72;1.58;;;;;;;23.10;50.74;101258.19;5146582;27;20050;-60
2023/09/25 09:53:14;;;;;;;1.73;1.00;;;;;;;23.55;50.38;101241.94;5146414;27;20029;-60
2023/09/25 09:55:42;;;;;;;1.35;0.63;;;;;;;24.22;48.61;101249.16;5146326;27;20460;-60
2023/09/25 09:58:08;;;;;;;0.95;0.73;;;;;;;24.54;48.14;101232.47;5146522;27;20031;-61
2023/09/25 10:00:34;;;;;;;2.05;1.00;;;;;;;24.53;47.16;101231.59;5146306;27;20046;-60
2023/09/25 10:03:00;;;;;;;1.60;0.98;;;;;;;24.03;47.46;101239.47;5146092;27;20390;-60
2023/09/25 10:05:26;;;;;;;1.42;0.80;;;;;;;23.42;48.95;101242.53;5145873;27;20040;-61
2023/09/25 10:08:11;;;;;;;1.00;0.70;;;;;;;22.64;47.63;101232.94;5127175;27;20023;-60
2023/09/25 10:10:48;;;;;;;1.20;0.80;;;;;;;21.86;49.67;101220.50;5146267;27;20033;-60
2023/09/25 10:13:21;;;;;;;2.80;0.88;;;;;;;21.39;51.16;101254.13;5146433;28;20043;-61
2023/09/25 10:16:00;;;;;;;2.75;0.75;;;;;;;21.21;51.03;101248.66;5146418;28;20475;-60
2023/09/25 10:18:30;;;;;;;1.48;0.93;;;;;;;21.16;52.24;101248.84;5146421;28;20053;-60
2023/09/25 10:21:10;;;;;;;2.13;1.23;;;;;;;21.49;51.52;101244.00;5146218;28;20080;-60
2023/09/25 10:23:38;;;;;;;1.40;0.82;;;;;;;21.23;51.47;101241.50;5146135;28;20030;-60
2023/09/25 10:26:04;;;;;;;1.77;0.93;;;;;;;20.79;52.17;101240.53;5146159;28;20043;-60
2023/09/25 10:28:32;;;;;;;1.75;1.00;;;;;;;20.46;52.89;101243.53;5146430;28;20523;-60
2023/09/25 10:31:02;;;;;;;0.80;0.65;;;;;;;20.16;53.61;101230.56;5146188;28;20015;-61
2023/09/25 10:33:32;;;;;;;5.25;1.17;;;;;;;20.00;54.47;101233.66;5146086;28;20029;-61
2023/09/25 10:36:03;;;;;;;1.30;0.73;;;;;;;19.93;54.72;101225.16;5146194;28;20115;-60
2023/09/25 10:38:31;;;;;;;2.50;1.25;;;;;;;19.87;54.30;101206.06;5145949;28;20027;-61
2023/09/25 10:41:01;;;;;;;0.70;0.70;;;;;;;19.77;54.76;101219.53;5146013;28;20024;-61
2023/09/25 10:43:27;;;;;;;0.98;0.68;;;;;;;19.72;55.29;101216.19;5127535;28;20026;-61
2023/09/25 10:45:56;;;;;;;1.05;0.93;;;;;;;19.64;55.91;101213.81;5146069;28;20019;-61
2023/09/25 10:48:25;;;;;;;1.17;0.60;;;;;;;19.77;55.49;101208.13;5146062;28;20038;-61
2023/09/25 10:50:50;;;;;;;0.55;0.43;;;;;;;19.79;55.58;101207.16;5145973;28;20015;-61
2023/09/25 10:53:16;;;;;;;1.15;0.50;;;;;;;19.82;56.33;101220.22;5145814;28;20086;-61
2023/09/25 10:55:42;;;;;;;1.20;0.98;;;;;;;20.10;56.07;101209.66;5145920;28;20027;-62
2023/09/25 10:58:09;;;;;;;0.70;0.60;;;;;;;20.65;54.21;101221.72;5145907;28;20431;-60
2023/09/25 11:00:37;;;;;;;1.95;1.15;;;;;;;20.49;54.89;101232.88;5127446;28;20095;-62
2023/09/25 11:03:02;;;;;;;1.80;0.75;;;;;;;20.37;54.95;101223.63;5145561;28;20051;-60
2023/09/25 11:05:32;;;;;;;1.70;1.02;;;;;;;20.17;54.76;101232.25;5145964;28;20031;-61
2023/09/25 11:07:58;;;;;;;2.38;1.02;;;;;;;19.93;55.34;101219.00;5145701;28;20075;-61
2023/09/25 11:10:29;;;;;;;0.95;0.60;;;;;;;19.66;56.21;101230.44;5145823;28;20019;-61
2023/09/25 11:12:56;;;;;;;2.25;0.88;;;;;;;19.41;56.19;101238.31;5145738;28;20030;-61
2023/09/25 11:15:22;;;;;;;1.83;0.85;;;;;;;19.20;57.00;101224.91;5145428;28;20026;-61
2023/09/25 11:17:47;;;;;;;1.00;0.77;;;;;;;19.24;57.29;101237.06;5147348;27;20022;-62
2023/09/25 11:20:18;;;;;;;2.65;0.88;;;;;;;19.31;56.98;101237.72;5149397;27;20449;-62